createdAt,value
2019-01-02T00:03:39.098Z,2.20
2019-01-02T00:08:46.167Z,2.30
2019-01-02T00:13:53.431Z,2.40
2019-01-02T00:19:01.552Z,2.70
2019-01-02T00:24:09.010Z,2.90
2019-01-02T00:29:16.672Z,2.90
2019-01-02T00:34:23.727Z,2.90
2019-01-02T00:39:30.808Z,2.90
2019-01-02T00:44:37.963Z,2.90
2019-01-02T00:49:45.142Z,2.90
2019-01-02T00:54:52.698Z,3.00
2019-01-02T01:00:00.395Z,3.00
2019-01-02T01:05:08.874Z,3.00
2019-01-02T01:10:18.018Z,3.10
2019-01-02T01:15:25.923Z,3.00
2019-01-02T01:20:33.067Z,3.00
2019-01-02T01:25:40.143Z,3.00
2019-01-02T01:30:47.182Z,3.10
2019-01-02T01:35:54.639Z,3.10
2019-01-02T01:41:01.792Z,3.00
2019-01-02T01:46:08.757Z,3.00
2019-01-02T01:51:17.371Z,2.90
2019-01-02T01:56:24.422Z,2.80
2019-01-02T02:01:33.029Z,2.80
2019-01-02T02:06:41.720Z,2.80
2019-01-02T02:11:48.979Z,2.80
2019-01-02T02:16:56.226Z,2.80
2019-01-02T02:22:03.844Z,2.80
2019-01-02T02:27:11.177Z,2.70
2019-01-02T02:32:18.455Z,2.70
2019-01-02T02:37:25.819Z,2.70
2019-01-02T02:42:32.983Z,2.70
2019-01-02T02:47:40.337Z,2.70
2019-01-02T02:52:47.777Z,2.70
2019-01-02T02:57:54.827Z,2.70
2019-01-02T03:03:02.385Z,2.70
2019-01-02T03:08:09.452Z,2.60
2019-01-02T03:13:16.915Z,2.70
2019-01-02T03:18:24.479Z,2.70
2019-01-02T03:23:31.538Z,2.60
2019-01-02T03:28:38.586Z,2.60
2019-01-02T03:33:46.252Z,2.50
2019-01-02T03:38:53.283Z,2.30
2019-01-02T03:44:00.355Z,2.30
2019-01-02T03:49:08.718Z,2.20
2019-01-02T03:54:15.858Z,2.10
2019-01-02T03:59:23.037Z,2.10
2019-01-02T04:04:30.200Z,2.00
2019-01-02T04:09:37.231Z,1.90
2019-01-02T04:14:44.276Z,1.80
2019-01-02T04:19:51.423Z,1.70
2019-01-02T04:24:59.131Z,1.70
2019-01-02T04:30:08.585Z,1.70
2019-01-02T04:35:16.647Z,1.60
2019-01-02T04:40:23.723Z,1.50
2019-01-02T04:45:30.799Z,1.50
2019-01-02T04:50:37.764Z,1.50
2019-01-02T04:55:44.833Z,1.40
2019-01-02T05:00:51.895Z,1.40
2019-01-02T05:05:59.025Z,1.30
2019-01-02T05:16:12.933Z,1.20
2019-01-02T05:21:19.983Z,1.10
2019-01-02T05:26:27.147Z,1.10
2019-01-02T05:31:35.591Z,1.00
2019-01-02T05:36:42.645Z,1.10
2019-01-02T05:41:49.684Z,1.00
2019-01-02T05:46:56.705Z,1.00
2019-01-02T05:52:03.860Z,0.90
2019-01-02T05:57:10.914Z,0.90
2019-01-02T06:02:17.975Z,0.90
2019-01-02T06:07:25.141Z,0.90
2019-01-02T06:12:32.479Z,0.90
2019-01-02T06:17:39.555Z,0.80
2019-01-02T06:22:46.618Z,0.80
2019-01-02T06:27:53.652Z,0.70
2019-01-02T06:33:00.742Z,0.70
2019-01-02T06:38:09.290Z,0.70
2019-01-02T06:43:16.403Z,0.60
2019-01-02T06:48:23.582Z,0.60
2019-01-02T06:53:30.711Z,0.60
2019-01-02T06:58:37.775Z,0.70
2019-01-02T07:03:45.754Z,0.60
2019-01-02T07:08:53.100Z,0.50
2019-01-02T07:14:00.250Z,0.60
2019-01-02T07:19:07.507Z,0.60
2019-01-02T07:24:14.587Z,0.60
2019-01-02T07:29:21.656Z,0.60
2019-01-02T07:35:21.739Z,0.60
2019-01-02T07:41:27.611Z,0.60
2019-01-02T07:47:03.994Z,0.70
2019-01-02T07:53:03.482Z,0.80
2019-01-02T08:03:47.353Z,0.70
2019-01-02T08:09:29.166Z,0.70
2019-01-02T08:15:12.717Z,0.50
2019-01-02T08:20:51.700Z,0.50
2019-01-02T08:26:38.802Z,0.50
2019-01-02T08:32:44.718Z,0.50
2019-01-02T08:38:17.802Z,0.60
2019-01-02T08:44:01.922Z,0.60
2019-01-02T08:50:02.258Z,0.60
2019-01-02T08:55:30.507Z,0.40
2019-01-02T09:01:08.099Z,0.30
2019-01-02T09:06:59.780Z,0.40
2019-01-02T09:12:54.979Z,0.50
2019-01-02T09:18:39.721Z,0.80
2019-01-02T09:24:27.239Z,1.00
2019-01-02T09:30:06.701Z,1.00
2019-01-02T09:35:53.230Z,0.90
2019-01-02T09:41:26.656Z,0.70
2019-01-02T09:47:13.789Z,0.70
2019-01-02T09:53:03.693Z,0.60
2019-01-02T09:58:54.863Z,0.50
2019-01-02T10:04:26.273Z,0.40
2019-01-02T10:10:04.677Z,0.40
2019-01-02T10:15:47.068Z,0.40
2019-01-02T10:21:28.777Z,0.40
2019-01-02T10:27:12.643Z,0.20
2019-01-02T10:32:55.084Z,0.20
2019-01-02T10:38:42.543Z,0.20
2019-01-02T10:44:33.050Z,0.20
2019-01-02T10:50:11.843Z,0.10
2019-01-02T10:55:44.028Z,0.30
2019-01-02T11:01:23.638Z,0.30
2019-01-02T11:07:07.312Z,0.20
2019-01-02T11:12:36.488Z,0.10
2019-01-02T11:18:45.547Z,0.10
2019-01-02T11:24:35.646Z,0.10
2019-01-02T11:30:24.993Z,0.20
2019-01-02T11:36:02.666Z,0.20
2019-01-02T11:41:32.446Z,0.10
2019-01-02T11:46:40.308Z,0.10
2019-01-02T11:51:48.217Z,-0.10
2019-01-02T11:56:56.917Z,-0.10
2019-01-02T12:02:13.350Z,-0.10
2019-01-02T12:07:29.425Z,-0.20
2019-01-02T12:12:36.937Z,-0.20
2019-01-02T12:17:44.078Z,-0.20
2019-01-02T12:22:51.448Z,-0.10
2019-01-02T12:27:58.541Z,0.00
2019-01-02T12:33:06.812Z,-0.10
2019-01-02T12:38:14.259Z,-0.30
2019-01-02T12:43:23.333Z,-0.30
2019-01-02T12:48:31.298Z,-0.40
2019-01-02T12:53:43.736Z,-0.20
2019-01-02T12:58:47.581Z,-0.40
2019-01-02T13:04:40.523Z,-0.50
2019-01-02T13:10:10.795Z,-0.50
2019-01-02T13:15:59.324Z,-0.60
2019-01-02T13:21:49.387Z,-0.60
2019-01-02T13:27:16.409Z,-0.70
2019-01-02T13:33:08.472Z,-0.60
2019-01-02T13:38:42.752Z,-0.70
2019-01-02T13:44:20.804Z,-0.70
2019-01-02T13:50:02.694Z,-0.60
2019-01-02T13:55:15.723Z,-0.50
2019-01-02T14:00:22.895Z,-0.50
2019-01-02T14:05:31.185Z,-0.50
2019-01-02T14:10:39.262Z,-0.60
2019-01-02T14:15:47.727Z,-0.50
2019-01-02T14:20:54.868Z,-0.60
2019-01-02T14:26:02.100Z,-0.60
2019-01-02T14:31:09.224Z,-0.70
2019-01-02T14:36:16.390Z,-0.80
2019-01-02T14:41:23.879Z,-0.90
2019-01-02T14:46:32.161Z,-0.90
2019-01-02T14:51:39.257Z,-0.90
2019-01-02T14:56:46.410Z,-1.00
2019-01-02T15:01:54.163Z,-0.80
2019-01-02T15:07:02.733Z,-0.90
2019-01-02T15:12:09.816Z,-0.90
2019-01-02T15:17:17.262Z,-1.00
2019-01-02T15:22:24.796Z,-1.00
2019-01-02T15:27:33.310Z,-1.00
2019-01-02T15:32:40.445Z,-1.00
2019-01-02T15:37:47.520Z,-0.90
2019-01-02T15:42:54.579Z,-0.90
2019-01-02T15:48:01.755Z,-0.90
2019-01-02T15:53:09.022Z,-1.00
2019-01-02T15:58:17.076Z,-1.00
2019-01-02T16:03:24.048Z,-1.00
2019-01-02T16:08:31.342Z,-1.10
2019-01-02T16:13:39.531Z,-1.10
2019-01-02T16:18:46.719Z,-1.00
2019-01-02T16:23:53.897Z,-1.10
2019-01-02T16:29:02.356Z,-1.20
2019-01-02T16:34:09.410Z,-1.20
2019-01-02T16:39:17.675Z,-1.00
2019-01-02T16:44:25.949Z,-1.00
2019-01-02T16:49:34.618Z,-1.10
2019-01-02T16:54:42.909Z,-1.20
2019-01-02T16:59:50.121Z,-1.30
2019-01-02T17:04:57.487Z,-1.30
2019-01-02T17:10:06.331Z,-1.30
2019-01-02T17:15:13.687Z,-1.20
2019-01-02T17:20:21.760Z,-1.20
2019-01-02T17:25:28.789Z,-1.20
2019-01-02T17:30:36.883Z,-1.10
2019-01-02T17:35:47.294Z,-1.10
2019-01-02T17:40:54.793Z,-1.10
2019-01-02T17:46:03.153Z,-1.30
2019-01-02T17:51:11.830Z,-1.30
2019-01-02T17:56:19.393Z,-1.40
2019-01-02T18:01:27.601Z,-1.50
2019-01-02T18:06:34.909Z,-1.50
2019-01-02T18:11:42.005Z,-1.50
2019-01-02T18:16:50.194Z,-1.40
2019-01-02T18:21:57.298Z,-1.40
2019-01-02T18:27:06.613Z,-1.40
2019-01-02T18:32:14.002Z,-1.40
2019-01-02T18:37:22.001Z,-1.50
2019-01-02T18:42:30.303Z,-1.40
2019-01-02T18:47:37.866Z,-1.30
2019-01-02T18:52:45.115Z,-1.30
2019-01-02T18:57:52.375Z,-1.30
2019-01-02T19:02:59.415Z,-1.20
2019-01-02T19:08:06.675Z,-1.10
2019-01-02T19:13:15.042Z,-1.20
2019-01-02T19:18:23.310Z,-1.30
2019-01-02T19:23:32.650Z,-1.20
2019-01-02T19:28:41.320Z,-1.20
2019-01-02T19:33:49.684Z,-1.20
2019-01-02T19:38:57.115Z,-1.20
2019-01-02T19:44:04.184Z,-1.20
2019-01-02T19:49:11.653Z,-1.20
2019-01-02T19:54:19.061Z,-1.10
2019-01-02T19:59:26.321Z,-1.20
2019-01-02T20:04:34.717Z,-1.20
2019-01-02T20:09:42.108Z,-1.30
2019-01-02T20:14:50.621Z,-1.20
2019-01-02T20:20:00.591Z,-1.20
2019-01-02T20:25:07.920Z,-1.20
2019-01-02T20:30:15.822Z,-1.20
2019-01-02T20:35:23.014Z,-1.20
2019-01-02T20:40:30.275Z,-1.20
2019-01-02T20:45:38.313Z,-1.20
2019-01-02T20:50:45.424Z,-1.30
2019-01-02T20:55:53.087Z,-1.30
2019-01-02T21:01:00.280Z,-1.30
2019-01-02T21:06:07.309Z,-1.30
2019-01-02T21:11:14.383Z,-1.30
2019-01-02T21:16:22.638Z,-1.40
2019-01-02T21:21:30.950Z,-1.40
2019-01-02T21:26:39.312Z,-1.50
2019-01-02T21:31:46.660Z,-1.50
2019-01-02T21:36:53.834Z,-1.50
2019-01-02T21:42:01.937Z,-1.30
2019-01-02T21:47:10.155Z,-1.30
2019-01-02T21:52:17.437Z,-1.40
2019-01-02T21:57:24.568Z,-1.40
2019-01-02T22:02:40.150Z,-1.40
2019-01-02T22:07:44.574Z,-1.40
2019-01-02T22:12:52.881Z,-1.50
2019-01-02T22:18:00.944Z,-1.60
2019-01-02T22:23:08.220Z,-1.70
2019-01-02T22:28:16.362Z,-1.70
2019-01-02T22:33:24.639Z,-1.60
2019-01-02T22:38:31.954Z,-1.40
2019-01-02T22:43:40.282Z,-1.40
2019-01-02T22:48:48.551Z,-1.40
2019-01-02T22:53:55.838Z,-1.40
2019-01-02T22:59:03.110Z,-1.50
2019-01-02T23:04:27.734Z,-1.40
2019-01-02T23:09:46.908Z,-1.40
2019-01-02T23:15:11.481Z,-1.40
2019-01-02T23:20:37.483Z,-1.50
2019-01-02T23:26:18.787Z,-1.60
2019-01-02T23:31:47.545Z,-1.60
2019-01-02T23:37:25.764Z,-1.70
2019-01-02T23:43:00.644Z,-1.70
2019-01-02T23:48:26.583Z,-1.80
2019-01-02T23:53:58.427Z,-1.80
2019-01-02T23:59:33.669Z,-1.80
